Time;durP1;ratioP1;P1;durP2;ratioP2;P2;SDS_P1;SDS_P2;PMS_P1;PMS_P2;Temp;Humidity;BMP_temperature;BMP_pressure;BME280_temperature;BME280_humidity;BME280_pressure;Samples;Min_cycle;Max_cycle;Signal;HPM_P1;HPM_P2
2023/04/07 00:01:53;;;;;;;7.22;3.65;;;7.30;99.90;;;;;;5050946;28;20139;-63
2023/04/07 00:04:19;;;;;;;8.98;3.67;;;7.30;99.90;;;;;;5052376;28;20102;-63
2023/04/07 00:06:46;;;;;;;9.48;5.10;;;7.30;99.90;;;;;;5033959;28;20043;-64
2023/04/07 00:09:13;;;;;;;8.05;4.90;;;7.30;99.90;;;;;;5034740;28;20037;-63
2023/04/07 00:11:40;;;;;;;9.20;5.03;;;7.30;99.90;;;;;;5051403;28;20037;-63
2023/04/07 00:14:07;;;;;;;8.07;3.92;;;7.30;99.90;;;;;;5050838;28;20053;-63
2023/04/07 00:16:33;;;;;;;6.30;3.67;;;7.30;99.90;;;;;;5051177;28;20048;-63
2023/04/07 00:19:01;;;;;;;8.82;4.30;;;7.30;99.90;;;;;;5052379;28;20079;-63
2023/04/07 00:21:29;;;;;;;10.88;5.07;;;7.40;99.90;;;;;;5051892;28;20048;-63
2023/04/07 00:23:56;;;;;;;4.55;2.75;;;7.40;99.90;;;;;;5051216;28;20037;-63
2023/04/07 00:26:24;;;;;;;6.90;4.35;;;7.30;99.90;;;;;;5051979;28;20064;-63
2023/04/07 00:28:50;;;;;;;9.90;3.83;;;7.30;99.90;;;;;;5050481;28;20178;-64
2023/04/07 00:31:16;;;;;;;9.63;4.60;;;7.30;99.90;;;;;;5052091;28;20045;-63
2023/04/07 00:33:41;;;;;;;9.02;3.95;;;7.30;99.90;;;;;;5050931;28;20484;-63
2023/04/07 00:36:08;;;;;;;9.27;4.20;;;7.40;99.90;;;;;;5050478;28;20489;-63
2023/04/07 00:38:37;;;;;;;6.32;4.07;;;7.40;99.90;;;;;;5051033;28;20076;-63
2023/04/07 00:41:05;;;;;;;8.98;4.85;;;7.40;99.90;;;;;;5050693;28;20048;-63
2023/04/07 00:43:32;;;;;;;12.57;4.70;;;7.40;99.90;;;;;;5051449;28;20043;-63
2023/04/07 00:45:58;;;;;;;10.88;4.10;;;7.40;99.90;;;;;;5051938;28;20103;-63
2023/04/07 00:48:26;;;;;;;11.13;5.38;;;7.40;99.90;;;;;;5052043;28;20036;-63
2023/04/07 00:50:54;;;;;;;8.13;4.32;;;7.40;99.90;;;;;;5051534;28;20072;-63
2023/04/07 00:53:21;;;;;;;6.78;3.40;;;7.40;99.90;;;;;;5051942;28;20116;-63
2023/04/07 00:55:47;;;;;;;6.57;4.50;;;7.40;99.90;;;;;;5051196;28;20116;-63
2023/04/07 00:58:14;;;;;;;10.93;4.55;;;7.40;99.90;;;;;;5051643;28;20040;-63
2023/04/07 01:01:01;;;;;;;12.80;5.10;;;7.40;99.90;;;;;;5050462;28;20045;-63
2023/04/07 01:03:40;;;;;;;8.20;3.90;;;7.50;99.90;;;;;;5033236;28;20037;-63
2023/04/07 01:06:10;;;;;;;7.60;3.42;;;7.40;99.90;;;;;;5033968;28;20043;-63
2023/04/07 01:08:48;;;;;;;11.60;4.80;;;7.50;99.90;;;;;;5049909;28;20574;-64
2023/04/07 01:11:38;;;;;;;11.88;4.85;;;7.40;99.90;;;;;;5049784;28;20076;-63
2023/04/07 01:14:06;;;;;;;11.40;5.22;;;7.50;99.90;;;;;;5051486;28;20048;-63
2023/04/07 01:16:43;;;;;;;8.07;4.70;;;7.50;99.90;;;;;;5051141;28;20037;-63
2023/04/07 01:19:40;;;;;;;9.18;4.25;;;7.50;99.90;;;;;;5050007;28;20120;-63
2023/04/07 01:22:16;;;;;;;8.60;4.45;;;7.50;99.90;;;;;;5050168;28;20045;-63
2023/04/07 01:25:03;;;;;;;9.85;5.38;;;7.50;99.90;;;;;;5050510;28;20063;-63
2023/04/07 01:28:00;;;;;;;8.13;4.00;;;7.50;99.90;;;;;;5049910;28;20060;-63
2023/04/07 01:30:32;;;;;;;7.22;4.32;;;7.50;99.90;;;;;;5051383;28;20036;-63
2023/04/07 01:32:59;;;;;;;9.15;3.72;;;7.50;99.90;;;;;;5049963;28;20040;-63
2023/04/07 01:35:28;;;;;;;5.75;3.17;;;7.50;99.90;;;;;;5050938;28;20052;-63
2023/04/07 01:37:55;;;;;;;4.70;3.40;;;7.50;99.90;;;;;;5048997;28;20373;-63
2023/04/07 01:40:23;;;;;;;10.00;4.25;;;7.50;99.90;;;;;;5050835;28;20037;-63
2023/04/07 01:42:52;;;;;;;8.00;3.78;;;7.50;99.90;;;;;;5049422;28;20033;-63
2023/04/07 01:45:20;;;;;;;7.13;3.73;;;7.60;99.90;;;;;;5049120;28;20385;-63
2023/04/07 01:47:48;;;;;;;8.65;3.80;;;7.60;99.90;;;;;;5050849;28;20283;-63
2023/04/07 01:50:16;;;;;;;6.70;3.05;;;7.60;99.90;;;;;;5049657;28;20037;-63
2023/04/07 01:52:42;;;;;;;10.70;3.45;;;7.60;99.90;;;;;;5050003;28;20045;-63
2023/04/07 01:55:09;;;;;;;9.70;4.35;;;7.60;99.90;;;;;;5049340;28;20599;-63
2023/04/07 01:57:37;;;;;;;7.82;2.95;;;7.60;99.90;;;;;;5049435;28;20037;-63
2023/04/07 02:00:03;;;;;;;6.03;2.85;;;7.60;99.90;;;;;;5048929;28;20076;-63
2023/04/07 02:02:29;;;;;;;7.70;3.38;;;7.60;99.90;;;;;;5049273;28;20044;-63
2023/04/07 02:04:57;;;;;;;10.68;3.63;;;7.60;99.90;;;;;;5049484;28;20037;-63
2023/04/07 02:07:33;;;;;;;8.75;3.50;;;7.60;99.90;;;;;;5049856;28;20045;-63
2023/04/07 02:10:04;;;;;;;6.15;3.53;;;7.60;99.90;;;;;;5049185;28;20561;-63
2023/04/07 02:12:32;;;;;;;6.53;3.33;;;7.60;99.90;;;;;;5050626;28;20044;-63
2023/04/07 02:14:59;;;;;;;6.28;2.58;;;7.60;99.90;;;;;;5049343;28;20045;-63
2023/04/07 02:17:28;;;;;;;8.90;2.85;;;7.60;99.90;;;;;;5050409;28;20049;-63
2023/04/07 02:19:57;;;;;;;8.10;2.95;;;7.70;99.90;;;;;;5049156;28;20554;-63
2023/04/07 02:22:24;;;;;;;8.43;3.08;;;7.70;99.90;;;;;;5054631;28;20040;-63
2023/04/07 02:24:51;;;;;;;7.28;3.58;;;7.70;99.90;;;;;;5053276;28;20041;-63
2023/04/07 02:27:18;;;;;;;11.52;2.72;;;7.70;99.90;;;;;;5052521;28;20060;-63
2023/04/07 02:29:45;;;;;;;4.45;2.38;;;7.70;99.90;;;;;;5054505;28;20072;-63
2023/04/07 02:32:12;;;;;;;8.23;3.08;;;7.70;99.90;;;;;;5053073;28;20492;-63
2023/04/07 02:34:39;;;;;;;6.60;3.10;;;7.70;99.90;;;;;;5053920;28;20044;-63
2023/04/07 02:37:05;;;;;;;8.77;3.65;;;7.80;99.90;;;;;;5053160;28;20081;-63
2023/04/07 02:39:33;;;;;;;3.90;2.35;;;7.80;99.90;;;;;;5054292;28;20094;-63
2023/04/07 02:42:00;;;;;;;5.15;1.90;;;7.80;99.90;;;;;;5053757;28;20041;-63
2023/04/07 02:44:27;;;;;;;5.47;2.40;;;7.90;99.90;;;;;;5054171;28;20037;-63
2023/04/07 02:46:53;;;;;;;7.40;2.75;;;7.90;99.90;;;;;;5053059;28;20080;-63
2023/04/07 02:49:21;;;;;;;2.95;1.67;;;7.90;99.90;;;;;;5053640;28;20047;-63
2023/04/07 02:51:47;;;;;;;3.00;1.10;;;7.90;99.90;;;;;;5053047;28;20051;-63
2023/04/07 02:54:13;;;;;;;2.20;1.10;;;7.90;99.90;;;;;;5052970;28;20470;-63
2023/04/07 02:56:39;;;;;;;6.60;1.67;;;8.00;99.90;;;;;;5052231;28;20469;-63
2023/04/07 02:59:07;;;;;;;1.85;1.13;;;8.00;99.90;;;;;;5053973;28;20108;-63
2023/04/07 03:01:35;;;;;;;1.50;0.90;;;8.00;99.90;;;;;;5051893;28;20056;-63
2023/04/07 03:04:04;;;;;;;4.70;2.08;;;8.00;99.90;;;;;;5052568;28;20501;-63
2023/04/07 03:06:33;;;;;;;2.42;0.93;;;8.00;99.90;;;;;;5053988;28;20043;-63
2023/04/07 03:09:01;;;;;;;3.53;1.23;;;8.10;99.90;;;;;;5053132;28;20055;-63
2023/04/07 03:11:29;;;;;;;3.30;1.42;;;8.10;99.90;;;;;;5052278;28;20482;-63
2023/04/07 03:13:55;;;;;;;2.90;1.00;;;8.10;99.90;;;;;;5052254;28;20036;-63
2023/04/07 03:16:22;;;;;;;2.58;1.10;;;8.10;99.90;;;;;;5051769;28;20056;-63
2023/04/07 03:18:49;;;;;;;2.63;1.00;;;8.10;99.90;;;;;;5053644;28;20039;-63
2023/04/07 03:21:17;;;;;;;2.45;1.00;;;8.10;99.90;;;;;;5052360;28;20421;-63
2023/04/07 03:23:45;;;;;;;6.63;2.28;;;8.10;99.90;;;;;;5051619;28;20044;-63
2023/04/07 03:26:12;;;;;;;8.15;1.60;;;8.10;99.90;;;;;;5053308;28;20052;-63
2023/04/07 03:28:39;;;;;;;2.83;0.88;;;8.10;99.90;;;;;;5052006;28;20036;-63
2023/04/07 03:31:06;;;;;;;2.42;0.90;;;8.10;99.90;;;;;;5051122;28;20040;-63
2023/04/07 03:33:35;;;;;;;5.70;1.13;;;8.10;99.90;;;;;;5035595;28;20036;-63
2023/04/07 03:36:01;;;;;;;3.17;1.25;;;8.10;99.90;;;;;;5053193;28;20048;-63
2023/04/07 03:38:28;;;;;;;2.80;1.30;;;8.10;99.90;;;;;;5051491;28;20040;-63
2023/04/07 03:40:54;;;;;;;0.90;0.65;;;8.10;99.90;;;;;;5051992;28;20083;-63
2023/04/07 03:43:22;;;;;;;2.83;1.00;;;8.10;99.90;;;;;;5053215;28;20037;-63
2023/04/07 03:45:50;;;;;;;8.55;1.25;;;8.10;99.90;;;;;;5051610;28;20430;-63
2023/04/07 03:48:16;;;;;;;5.57;1.05;;;8.10;99.90;;;;;;5051807;28;20045;-63
2023/04/07 03:50:43;;;;;;;2.50;1.15;;;8.10;99.90;;;;;;5052424;28;20083;-63
2023/04/07 03:53:09;;;;;;;4.15;1.27;;;8.10;99.90;;;;;;5051911;28;20037;-63
2023/04/07 03:55:36;;;;;;;2.95;1.52;;;8.10;99.90;;;;;;5051663;28;20076;-63
2023/04/07 03:58:02;;;;;;;2.22;0.93;;;8.20;99.90;;;;;;5050868;28;20064;-63
2023/04/07 04:00:30;;;;;;;2.35;0.82;;;8.20;99.90;;;;;;5051557;28;20037;-62
2023/04/07 04:02:57;;;;;;;1.85;0.93;;;8.20;99.90;;;;;;5052778;28;20482;-63
2023/04/07 04:05:23;;;;;;;2.92;1.15;;;8.20;99.90;;;;;;5052180;28;20036;-63
2023/04/07 04:07:51;;;;;;;2.33;0.80;;;8.20;99.90;;;;;;5050959;28;20041;-62
2023/04/07 04:10:19;;;;;;;2.20;1.02;;;8.10;99.90;;;;;;5051244;28;20045;-62
2023/04/07 04:12:49;;;;;;;3.45;0.90;;;8.10;99.90;;;;;;5051804;28;20045;-63
2023/04/07 04:15:16;;;;;;;1.65;0.68;;;8.10;99.90;;;;;;5052469;28;20052;-63
2023/04/07 04:17:44;;;;;;;3.05;1.73;;;8.10;99.90;;;;;;5052417;28;20052;-62
2023/04/07 04:20:11;;;;;;;4.38;1.15;;;8.20;99.90;;;;;;5051690;28;20037;-62
2023/04/07 04:22:38;;;;;;;3.13;1.40;;;8.20;99.90;;;;;;5051987;28;20047;-62
2023/04/07 04:25:07;;;;;;;2.00;0.95;;;8.10;99.90;;;;;;5049792;28;20128;-62
2023/04/07 04:27:35;;;;;;;2.20;1.10;;;8.10;99.90;;;;;;5050571;28;20044;-62
2023/04/07 04:30:03;;;;;;;1.92;1.00;;;8.10;99.90;;;;;;5049686;28;20056;-62
2023/04/07 04:32:31;;;;;;;3.35;1.20;;;8.10;99.90;;;;;;5049998;28;20040;-63
2023/04/07 04:34:58;;;;;;;3.72;1.50;;;8.20;99.90;;;;;;5049044;28;20060;-62
2023/04/07 04:37:27;;;;;;;2.88;1.10;;;8.10;99.90;;;;;;5051075;28;20088;-63
2023/04/07 04:39:55;;;;;;;3.28;1.35;;;8.10;99.90;;;;;;5050273;28;20047;-62
2023/04/07 04:42:22;;;;;;;4.53;1.08;;;8.20;99.90;;;;;;5050202;28;20186;-62
2023/04/07 04:44:50;;;;;;;5.35;1.85;;;8.10;99.90;;;;;;5050947;28;20028;-62
2023/04/07 04:47:18;;;;;;;2.50;1.00;;;8.10;99.90;;;;;;5048672;28;20053;-62
2023/04/07 04:49:46;;;;;;;6.88;1.40;;;8.10;99.90;;;;;;5049258;28;20123;-62
2023/04/07 04:52:14;;;;;;;2.35;1.15;;;8.10;99.90;;;;;;5050750;28;20044;-62
2023/04/07 04:54:41;;;;;;;1.73;0.95;;;8.10;99.90;;;;;;5048771;28;20041;-62
2023/04/07 04:57:07;;;;;;;2.78;1.00;;;8.10;99.90;;;;;;5050313;28;20044;-62
2023/04/07 04:59:34;;;;;;;3.28;1.25;;;8.10;99.90;;;;;;5050456;28;20041;-62
2023/04/07 05:02:00;;;;;;;2.47;1.17;;;8.10;99.90;;;;;;5049751;28;20055;-63
2023/04/07 05:04:28;;;;;;;1.77;0.95;;;8.10;99.90;;;;;;5050166;28;20052;-62
2023/04/07 05:06:55;;;;;;;6.18;1.05;;;8.10;99.90;;;;;;5048973;28;20041;-62
2023/04/07 05:09:24;;;;;;;2.15;1.08;;;8.10;99.90;;;;;;5049727;28;20052;-62
2023/04/07 05:11:52;;;;;;;2.40;1.02;;;8.10;99.90;;;;;;5050246;28;20455;-62
2023/04/07 05:14:19;;;;;;;1.17;0.73;;;8.10;99.90;;;;;;5050073;28;20406;-62
2023/04/07 05:16:47;;;;;;;3.42;1.05;;;8.10;99.90;;;;;;5047984;28;20062;-62
2023/04/07 05:19:13;;;;;;;1.60;0.80;;;8.10;99.90;;;;;;5050568;28;20094;-62
2023/04/07 05:21:41;;;;;;;4.00;1.40;;;8.20;99.90;;;;;;5049489;28;20040;-62
2023/04/07 05:24:09;;;;;;;3.13;1.50;;;8.20;99.90;;;;;;5049786;28;20555;-63
2023/04/07 05:26:37;;;;;;;1.92;0.90;;;8.10;99.90;;;;;;5033596;28;20143;-62
2023/04/07 05:29:05;;;;;;;1.40;0.95;;;8.20;99.90;;;;;;5048492;28;20413;-62
2023/04/07 05:31:32;;;;;;;2.45;1.00;;;8.10;99.90;;;;;;5048589;28;20056;-63
2023/04/07 05:34:00;;;;;;;3.53;1.60;;;8.20;99.90;;;;;;5048818;28;20056;-62
2023/04/07 05:36:27;;;;;;;4.07;1.77;;;8.10;99.90;;;;;;5047771;28;20084;-62
2023/04/07 05:38:54;;;;;;;2.90;1.30;;;8.10;99.90;;;;;;5049677;28;20076;-62
2023/04/07 05:41:22;;;;;;;4.78;1.70;;;8.10;99.90;;;;;;5049905;28;20068;-62
2023/04/07 05:43:50;;;;;;;3.58;1.38;;;8.10;99.90;;;;;;5049053;28;20109;-63
2023/04/07 05:46:18;;;;;;;3.58;1.40;;;8.20;99.90;;;;;;5048616;28;20136;-62
2023/04/07 05:48:46;;;;;;;3.60;1.42;;;8.20;99.90;;;;;;5048587;28;20105;-62
2023/04/07 05:51:14;;;;;;;2.75;1.42;;;8.20;99.90;;;;;;5049197;28;20048;-63
2023/04/07 05:53:42;;;;;;;2.72;1.27;;;8.20;99.90;;;;;;5048193;28;20171;-63
2023/04/07 05:56:10;;;;;;;4.45;1.42;;;8.20;99.90;;;;;;5048513;28;20127;-63
2023/04/07 05:58:38;;;;;;;2.38;0.80;;;8.20;99.90;;;;;;5048896;28;20153;-62
2023/04/07 06:01:06;;;;;;;3.50;1.85;;;8.20;99.90;;;;;;5049572;28;20033;-63
2023/04/07 06:03:33;;;;;;;2.53;1.15;;;8.30;99.90;;;;;;5048444;28;20048;-62
2023/04/07 06:05:59;;;;;;;3.65;1.45;;;8.30;99.90;;;;;;5050406;28;20051;-63
2023/04/07 06:08:27;;;;;;;4.50;1.50;;;8.30;99.90;;;;;;5050714;28;20115;-62
2023/04/07 06:10:55;;;;;;;5.05;2.03;;;8.30;99.90;;;;;;5049890;28;20044;-63
2023/04/07 06:13:23;;;;;;;4.25;1.13;;;8.40;99.90;;;;;;5050862;28;20099;-63
2023/04/07 06:15:51;;;;;;;6.00;2.60;;;8.40;99.90;;;;;;5050694;28;20116;-62
2023/04/07 06:18:19;;;;;;;6.93;1.58;;;8.30;99.90;;;;;;5048579;28;20083;-62
2023/04/07 06:20:48;;;;;;;4.57;1.98;;;8.30;99.90;;;;;;5049444;28;20094;-62
2023/04/07 06:23:16;;;;;;;5.68;2.42;;;8.30;99.90;;;;;;5049351;28;20102;-62
2023/04/07 06:25:44;;;;;;;3.72;1.85;;;8.30;99.90;;;;;;5048333;28;20111;-63
2023/04/07 06:28:12;;;;;;;4.60;1.90;;;8.30;99.90;;;;;;5050358;28;20715;-62
2023/04/07 06:30:40;;;;;;;7.30;2.00;;;8.30;99.90;;;;;;5050468;28;20157;-64
2023/04/07 06:33:08;;;;;;;7.60;2.30;;;8.30;99.90;;;;;;5048634;28;20055;-63
2023/04/07 06:35:36;;;;;;;3.78;1.98;;;8.30;99.90;;;;;;5050392;28;20117;-63
2023/04/07 06:38:04;;;;;;;6.47;2.28;;;8.20;99.90;;;;;;5048756;28;20055;-62
2023/04/07 06:40:30;;;;;;;3.60;1.67;;;8.20;99.90;;;;;;5049686;28;20084;-63
2023/04/07 06:42:58;;;;;;;6.10;2.38;;;8.20;99.90;;;;;;5049239;28;20097;-63
2023/04/07 06:45:25;;;;;;;5.63;2.53;;;8.20;99.90;;;;;;5050229;28;20125;-63
2023/04/07 06:47:52;;;;;;;4.75;2.45;;;8.10;99.90;;;;;;5048543;28;20120;-62
2023/04/07 06:50:21;;;;;;;4.70;2.10;;;8.20;99.90;;;;;;5049014;28;20099;-62
2023/04/07 06:52:49;;;;;;;6.57;2.47;;;8.20;99.90;;;;;;5048376;28;20045;-63
2023/04/07 06:55:17;;;;;;;3.53;1.70;;;8.20;99.90;;;;;;5048928;28;20056;-63
2023/04/07 06:57:45;;;;;;;6.22;2.33;;;8.20;99.90;;;;;;5050194;28;20037;-63
2023/04/07 07:00:14;;;;;;;7.63;2.58;;;8.20;99.90;;;;;;5048548;28;20063;-63
2023/04/07 07:02:42;;;;;;;2.88;1.67;;;8.20;99.90;;;;;;5050092;28;20123;-63
2023/04/07 07:05:10;;;;;;;6.90;2.42;;;8.20;99.90;;;;;;5050098;28;20144;-63
2023/04/07 07:07:39;;;;;;;3.60;1.42;;;8.20;99.90;;;;;;5050445;28;20052;-63
2023/04/07 07:10:09;;;;;;;4.05;1.85;;;8.20;99.90;;;;;;5051635;28;20137;-63
2023/04/07 07:12:38;;;;;;;3.90;1.92;;;8.20;99.90;;;;;;5052711;28;20040;-63
2023/04/07 07:15:07;;;;;;;3.72;1.50;;;8.20;99.90;;;;;;5050655;28;20558;-63
2023/04/07 07:17:35;;;;;;;4.15;1.92;;;8.20;99.90;;;;;;5051039;28;20048;-63
2023/04/07 07:20:01;;;;;;;4.50;1.90;;;8.20;99.90;;;;;;5051368;28;20091;-63
2023/04/07 07:22:29;;;;;;;3.53;1.67;;;8.10;99.90;;;;;;5050776;28;20448;-63
2023/04/07 07:24:57;;;;;;;5.65;2.05;;;8.20;99.90;;;;;;5050876;28;20063;-63
2023/04/07 07:27:25;;;;;;;3.65;1.63;;;8.20;99.90;;;;;;5052274;28;20091;-63
2023/04/07 07:29:53;;;;;;;2.67;1.33;;;8.20;99.90;;;;;;5050647;28;20447;-63
2023/04/07 07:32:21;;;;;;;5.10;2.13;;;8.20;99.90;;;;;;5052406;28;20086;-63
2023/04/07 07:34:49;;;;;;;3.80;2.20;;;8.20;99.90;;;;;;5050317;28;20389;-63
2023/04/07 07:37:16;;;;;;;2.15;1.33;;;8.10;99.90;;;;;;5050724;28;20128;-63
2023/04/07 07:39:44;;;;;;;4.13;2.08;;;8.20;99.90;;;;;;5050765;28;20512;-62
2023/04/07 07:42:12;;;;;;;3.65;2.03;;;8.20;99.90;;;;;;5050129;28;20159;-63
2023/04/07 07:44:40;;;;;;;3.65;1.25;;;8.20;99.90;;;;;;5033946;28;20555;-62
2023/04/07 07:47:08;;;;;;;4.65;1.90;;;8.20;99.90;;;;;;5052144;28;20084;-63
2023/04/07 07:49:36;;;;;;;4.47;2.20;;;8.30;99.90;;;;;;5051646;28;20130;-63
2023/04/07 07:52:04;;;;;;;4.70;1.40;;;8.30;99.90;;;;;;5050544;28;20106;-63
2023/04/07 07:54:32;;;;;;;3.45;2.30;;;8.30;99.90;;;;;;5050812;28;20178;-63
2023/04/07 07:57:00;;;;;;;3.70;2.05;;;8.30;99.90;;;;;;5051054;28;20098;-63
2023/04/07 07:59:28;;;;;;;4.15;1.67;;;8.30;99.90;;;;;;5050368;28;20044;-63
2023/04/07 08:01:53;;;;;;;3.10;1.98;;;8.40;99.90;;;;;;5050341;28;20047;-63
2023/04/07 08:04:21;;;;;;;3.88;1.70;;;8.40;99.90;;;;;;5051062;28;20040;-63
2023/04/07 08:06:49;;;;;;;5.15;2.33;;;8.40;99.90;;;;;;5051587;28;20045;-63
2023/04/07 08:09:18;;;;;;;3.97;2.00;;;8.40;99.90;;;;;;5050305;28;20095;-63
2023/04/07 08:11:47;;;;;;;2.65;1.35;;;8.40;99.90;;;;;;5049577;28;20508;-63
2023/04/07 08:14:14;;;;;;;3.35;2.22;;;8.50;99.90;;;;;;5051830;28;20052;-63
2023/04/07 08:16:42;;;;;;;2.55;1.70;;;8.50;99.90;;;;;;5050608;28;20516;-63
2023/04/07 08:19:10;;;;;;;4.05;1.88;;;8.50;99.90;;;;;;5050090;28;20048;-63
2023/04/07 08:21:39;;;;;;;5.80;2.00;;;8.60;99.90;;;;;;5050313;28;20039;-63
2023/04/07 08:24:06;;;;;;;5.68;2.20;;;8.60;99.90;;;;;;5049265;28;20087;-64
2023/04/07 08:26:34;;;;;;;3.80;2.03;;;8.70;99.90;;;;;;5049924;28;20064;-63
2023/04/07 08:29:02;;;;;;;3.42;1.63;;;8.70;99.90;;;;;;5051037;28;20091;-63
2023/04/07 08:31:30;;;;;;;6.20;2.35;;;8.80;99.90;;;;;;5049231;28;20052;-64
2023/04/07 08:34:00;;;;;;;4.63;2.00;;;8.80;99.90;;;;;;5051161;28;20099;-63
2023/04/07 08:36:28;;;;;;;2.65;1.13;;;8.80;99.90;;;;;;5049991;28;20047;-63
2023/04/07 08:38:57;;;;;;;2.78;1.50;;;8.80;99.90;;;;;;5049087;28;20047;-63
2023/04/07 08:41:43;;;;;;;3.05;1.35;;;8.80;99.90;;;;;;5049607;28;20508;-64
2023/04/07 08:44:11;;;;;;;4.88;2.03;;;8.80;99.90;;;;;;5051072;28;20052;-64
2023/04/07 08:46:39;;;;;;;3.95;2.03;;;8.80;99.90;;;;;;5049249;28;20059;-63
2023/04/07 08:49:09;;;;;;;3.72;2.10;;;8.70;99.90;;;;;;5049502;28;20045;-64
2023/04/07 08:51:39;;;;;;;5.10;1.95;;;8.70;99.90;;;;;;5050122;28;20049;-64
2023/04/07 08:54:12;;;;;;;5.53;2.50;;;8.70;99.90;;;;;;5050635;28;20174;-64
2023/04/07 08:56:42;;;;;;;5.55;2.67;;;8.70;99.90;;;;;;5049488;28;20099;-64
2023/04/07 08:59:12;;;;;;;3.83;1.50;;;8.70;99.90;;;;;;5048768;28;20501;-64
2023/04/07 09:01:39;;;;;;;2.85;1.60;;;8.70;99.90;;;;;;5050484;28;20079;-64
2023/04/07 09:04:09;;;;;;;4.22;1.83;;;8.70;99.90;;;;;;5049453;28;20045;-65
2023/04/07 09:06:37;;;;;;;3.28;1.25;;;8.60;99.90;;;;;;5049938;28;20048;-64
2023/04/07 09:09:08;;;;;;;2.35;1.05;;;8.60;99.90;;;;;;5049122;28;20105;-64
2023/04/07 09:11:41;;;;;;;1.83;1.15;;;8.60;99.90;;;;;;5049000;28;20564;-65
2023/04/07 09:14:08;;;;;;;2.67;1.25;;;8.70;99.90;;;;;;5049683;28;20040;-64
2023/04/07 09:16:38;;;;;;;2.58;1.10;;;8.70;99.90;;;;;;5048823;28;20520;-65
2023/04/07 09:19:06;;;;;;;2.00;1.17;;;8.70;99.90;;;;;;5049183;28;20175;-65
2023/04/07 09:21:52;;;;;;;1.63;0.82;;;8.80;99.90;;;;;;5048265;28;20056;-65
2023/04/07 09:24:31;;;;;;;3.20;1.90;;;8.80;99.90;;;;;;5048577;28;20040;-65
2023/04/07 09:27:14;;;;;;;2.80;1.13;;;8.90;99.90;;;;;;5049410;28;20405;-65
2023/04/07 09:29:44;;;;;;;3.13;1.30;;;9.00;99.90;;;;;;5049644;28;20571;-65
2023/04/07 09:32:13;;;;;;;2.13;1.13;;;9.10;99.90;;;;;;5049905;28;20052;-65
2023/04/07 09:34:42;;;;;;;3.47;1.77;;;9.20;99.90;;;;;;5049406;28;20052;-65
2023/04/07 09:37:21;;;;;;;4.10;1.70;;;9.20;99.90;;;;;;5048572;28;20045;-65
2023/04/07 09:39:53;;;;;;;2.67;1.30;;;9.20;99.90;;;;;;5050159;28;20520;-65
2023/04/07 09:42:24;;;;;;;2.47;1.50;;;9.20;99.90;;;;;;5047959;28;20037;-65
2023/04/07 09:44:52;;;;;;;3.22;1.33;;;9.30;99.90;;;;;;5049743;28;20528;-66
2023/04/07 09:47:28;;;;;;;2.95;1.25;;;9.40;99.90;;;;;;5048778;28;20458;-65
2023/04/07 09:49:57;;;;;;;2.75;1.40;;;9.40;99.90;;;;;;5049185;28;20528;-66
2023/04/07 09:52:46;;;;;;;2.53;1.50;;;9.40;99.90;;;;;;5048519;28;20088;-65
2023/04/07 09:55:16;;;;;;;4.07;1.97;;;9.50;99.90;;;;;;5048085;28;20467;-66
2023/04/07 09:57:44;;;;;;;2.50;1.40;;;9.60;99.90;;;;;;5031896;28;20527;-66
2023/04/07 10:00:11;;;;;;;2.60;1.35;;;9.70;99.90;;;;;;5048244;28;20558;-65
2023/04/07 10:02:39;;;;;;;1.88;1.20;;;9.80;99.90;;;;;;5047797;28;20041;-66
2023/04/07 10:05:06;;;;;;;2.90;1.48;;;9.90;99.90;;;;;;5049694;28;20126;-66
2023/04/07 10:07:36;;;;;;;2.67;1.98;;;10.00;99.90;;;;;;5048195;28;20044;-66
2023/04/07 10:10:03;;;;;;;;;;;10.20;99.90;;;;;;5048292;28;20053;-66
2023/04/07 10:12:33;;;;;;;3.60;1.90;;;10.20;99.90;;;;;;5048067;28;19962;-66
2023/04/07 10:15:01;;;;;;;5.00;2.17;;;10.20;99.90;;;;;;5049552;28;20120;-66
2023/04/07 10:17:30;;;;;;;4.30;2.25;;;10.30;99.90;;;;;;5047780;28;20048;-66
2023/04/07 10:20:00;;;;;;;3.80;2.22;;;10.30;99.90;;;;;;5049923;28;20044;-66
2023/04/07 10:22:33;;;;;;;5.10;2.65;;;10.40;99.90;;;;;;5049386;28;20041;-66
2023/04/07 10:25:10;;;;;;;4.57;2.22;;;10.30;99.90;;;;;;5047999;28;20063;-67
2023/04/07 10:27:48;;;;;;;4.90;2.47;;;10.30;99.90;;;;;;5048910;28;20102;-67
2023/04/07 10:30:27;;;;;;;4.35;2.88;;;10.30;99.90;;;;;;5048671;28;20076;-66
2023/04/07 10:32:55;;;;;;;4.63;2.42;;;10.40;99.90;;;;;;5049542;28;20145;-67
2023/04/07 10:35:23;;;;;;;4.00;1.70;;;10.40;99.90;;;;;;5050441;28;20048;-67
2023/04/07 10:38:09;;;;;;;5.53;2.20;;;10.30;99.90;;;;;;5032011;28;20041;-67
2023/04/07 10:40:38;;;;;;;5.13;2.88;;;10.20;99.90;;;;;;5049146;28;20047;-67
2023/04/07 10:43:10;;;;;;;8.70;3.05;;;10.20;99.90;;;;;;5053158;28;20037;-66
2023/04/07 10:45:58;;;;;;;3.63;1.75;;;10.10;99.90;;;;;;5035898;28;20102;-67
2023/04/07 10:48:27;;;;;;;4.40;2.22;;;10.00;99.90;;;;;;5054397;28;20044;-67
2023/04/07 10:51:07;;;;;;;6.35;2.92;;;10.00;99.90;;;;;;5052363;28;20044;-66
2023/04/07 10:53:33;;;;;;;;;;;9.90;99.90;;;;;;5053404;28;20094;-66
2023/04/07 10:56:01;;;;;;;2.65;1.75;;;9.90;99.90;;;;;;5036528;28;19917;-66
2023/04/07 10:58:38;;;;;;;4.47;2.28;;;9.90;99.90;;;;;;5053434;28;20114;-67
2023/04/07 11:01:10;;;;;;;3.35;2.13;;;9.90;99.90;;;;;;5052836;28;20163;-67
2023/04/07 11:03:40;;;;;;;3.83;1.95;;;10.00;99.90;;;;;;5053035;28;20071;-66
2023/04/07 11:06:10;;;;;;;2.65;1.85;;;10.00;99.90;;;;;;5052401;28;20041;-67
2023/04/07 11:08:49;;;;;;;2.67;1.60;;;10.10;99.90;;;;;;5052680;28;20043;-67
2023/04/07 11:11:21;;;;;;;3.08;2.20;;;10.10;99.90;;;;;;5054006;28;20071;-67
2023/04/07 11:13:51;;;;;;;3.95;1.63;;;10.20;99.90;;;;;;5052107;28;20371;-66
2023/04/07 11:16:36;;;;;;;2.33;1.30;;;10.30;99.90;;;;;;5053304;28;20041;-66
2023/04/07 11:19:06;;;;;;;3.55;1.65;;;10.40;99.90;;;;;;5050942;28;20128;-66
2023/04/07 11:21:35;;;;;;;3.10;1.73;;;10.60;99.90;;;;;;5051221;28;20048;-66
2023/04/07 11:24:01;;;;;;;3.72;1.58;;;10.70;99.90;;;;;;5052491;28;20037;-66
2023/04/07 11:26:29;;;;;;;3.42;1.73;;;10.80;99.90;;;;;;5050976;28;20045;-66
2023/04/07 11:28:57;;;;;;;4.68;2.63;;;10.80;99.90;;;;;;5051466;28;20063;-65
2023/04/07 11:31:30;;;;;;;3.90;1.75;;;10.90;99.90;;;;;;5052522;28;20033;-67
2023/04/07 11:34:02;;;;;;;5.22;2.97;;;11.00;99.90;;;;;;5033995;28;20133;-66
2023/04/07 11:36:33;;;;;;;3.85;2.10;;;11.00;99.90;;;;;;5052364;28;20037;-66
2023/04/07 11:39:00;;;;;;;2.95;1.70;;;11.00;99.90;;;;;;5053150;28;20397;-67
2023/04/07 11:41:29;;;;;;;4.82;2.42;;;11.10;99.90;;;;;;5051565;28;20063;-67
2023/04/07 11:44:11;;;;;;;4.73;2.30;;;11.00;99.90;;;;;;5051916;28;20041;-66
2023/04/07 11:46:58;;;;;;;4.72;2.20;;;11.00;99.90;;;;;;5052879;28;20045;-67
2023/04/07 11:49:26;;;;;;;3.80;1.85;;;10.90;99.90;;;;;;5051925;28;20048;-67
2023/04/07 11:52:05;;;;;;;4.82;2.15;;;10.90;99.90;;;;;;5052692;28;20594;-67
2023/04/07 11:54:46;;;;;;;4.03;1.90;;;10.80;99.90;;;;;;5052620;28;20174;-66
2023/04/07 11:57:12;;;;;;;3.42;1.40;;;10.70;99.90;;;;;;5035228;28;20443;-68
2023/04/07 11:59:39;;;;;;;5.25;2.35;;;10.60;99.90;;;;;;5051750;28;20060;-67
2023/04/07 12:02:06;;;;;;;5.05;1.83;;;10.60;99.90;;;;;;5051277;28;20037;-67
2023/04/07 12:04:32;;;;;;;4.55;2.15;;;10.60;99.90;;;;;;5051575;28;20049;-67
2023/04/07 12:07:09;;;;;;;5.00;2.25;;;10.60;99.90;;;;;;5051799;28;20040;-68
2023/04/07 12:09:36;;;;;;;6.55;3.30;;;10.60;99.90;;;;;;5052299;28;20044;-67
2023/04/07 12:12:07;;;;;;;6.57;3.17;;;10.70;99.90;;;;;;5051633;28;20477;-67
2023/04/07 12:14:33;;;;;;;4.57;2.28;;;10.70;99.90;;;;;;5052162;28;20087;-69
2023/04/07 12:17:02;;;;;;;5.00;2.20;;;10.80;99.90;;;;;;5050509;28;20532;-67
2023/04/07 12:19:29;;;;;;;4.70;2.60;;;10.80;99.90;;;;;;5052403;28;20047;-66
2023/04/07 12:21:55;;;;;;;3.05;1.45;;;10.80;99.90;;;;;;5050697;28;20110;-67
2023/04/07 12:24:22;;;;;;;4.50;2.00;;;10.80;99.90;;;;;;5050913;28;20049;-67
2023/04/07 12:26:48;;;;;;;4.43;2.45;;;10.90;99.90;;;;;;5052483;28;20041;-67
2023/04/07 12:29:18;;;;;;;3.35;2.08;;;11.00;99.90;;;;;;5050303;28;20048;-66
2023/04/07 12:31:44;;;;;;;;;;;11.10;99.90;;;;;;5051517;28;20048;-67
2023/04/07 12:34:10;;;;;;;3.75;1.85;;;11.10;99.90;;;;;;5050872;28;19916;-67
2023/04/07 12:36:37;;;;;;;3.53;2.35;;;11.10;99.90;;;;;;5050510;28;20064;-68
2023/04/07 12:39:03;;;;;;;4.45;2.50;;;11.10;99.90;;;;;;5051071;28;20033;-67
2023/04/07 12:41:30;;;;;;;5.03;2.72;;;11.20;99.90;;;;;;5050949;28;20041;-67
2023/04/07 12:43:55;;;;;;;3.10;1.65;;;11.20;99.90;;;;;;5050103;28;20045;-67
2023/04/07 12:46:21;;;;;;;2.00;1.17;;;11.40;99.90;;;;;;5051979;28;20129;-67
2023/04/07 12:48:48;;;;;;;2.05;1.27;;;11.30;99.90;;;;;;5051738;28;20109;-67
2023/04/07 12:51:15;;;;;;;2.63;1.52;;;11.30;99.90;;;;;;5017415;28;20033;-67
2023/04/07 12:53:41;;;;;;;3.90;2.03;;;11.40;99.90;;;;;;5050348;28;20052;-67
2023/04/07 12:56:07;;;;;;;2.95;1.63;;;11.50;99.90;;;;;;5051476;28;20037;-67
2023/04/07 12:58:33;;;;;;;2.70;1.73;;;11.40;99.90;;;;;;5050944;28;20052;-67
2023/04/07 13:00:59;;;;;;;5.32;2.45;;;11.50;99.90;;;;;;5051529;28;20397;-68
2023/04/07 13:03:25;;;;;;;5.65;3.13;;;11.50;99.90;;;;;;5048809;28;20079;-68
2023/04/07 13:05:53;;;;;;;6.43;3.15;;;11.60;99.90;;;;;;5050852;28;20076;-68